Tonopah, Nevada
Current Conditions -  °F | °C
As of 6:56 AM on Sunday 23 Nov 2014 (Local Time) from KTPH Reporting Station
Clear Clear  
Wind Chill: 22°   Ceiling: Unl
Heat Index: 32°   Visibility: 10mi
Dew Point: 19°   Wind: 15mph
Humidity: 59%   Direction: 330°NNW
Pressure: 30.32"   Gusts: NA
Location:  38.07°N, 117.23°W
Report Text: KTPH 231456Z AUTO 33013KT 10SM CLR 00/M07 A3032 RMK AO2 SLP262 T00001072 53025
Loading
Personal Weather Stations






























Interactive Weather Map New forecast layout! Learn more

10-Day Weather Forecast

Advertisements
Track Severe Weather on mobile